sensor_id;sensor_type;location;lat;lon;timestamp;pressure;altitude;pressure_sealevel;temperature;humidity
24788;BME280;12883;52.662;5.196;2023-03-22T00:01:28;100800.47;;;10.70;100.00
24788;BME280;12883;52.662;5.196;2023-03-22T00:03:55;100790.28;;;10.73;100.00
24788;BME280;12883;52.662;5.196;2023-03-22T00:06:20;100790.50;;;10.72;100.00
24788;BME280;12883;52.662;5.196;2023-03-22T00:08:50;100766.97;;;10.56;100.00
24788;BME280;12883;52.662;5.196;2023-03-22T00:11:17;100794.16;;;10.71;100.00
24788;BME280;12883;52.662;5.196;2023-03-22T00:13:43;100789.88;;;10.70;100.00
24788;BME280;12883;52.662;5.196;2023-03-22T00:16:12;100785.59;;;10.69;100.00
24788;BME280;12883;52.662;5.196;2023-03-22T00:18:37;100765.94;;;10.57;100.00
24788;BME280;12883;52.662;5.196;2023-03-22T00:21:03;100785.81;;;10.74;100.00
24788;BME280;12883;52.662;5.196;2023-03-22T00:23:29;100759.81;;;10.50;100.00
24788;BME280;12883;52.662;5.196;2023-03-22T00:25:55;100775.78;;;10.69;100.00
24788;BME280;12883;52.662;5.196;2023-03-22T00:28:21;100786.19;;;10.71;100.00
24788;BME280;12883;52.662;5.196;2023-03-22T00:30:55;100764.75;;;10.66;100.00
24788;BME280;12883;52.662;5.196;2023-03-22T00:33:21;100773.94;;;10.70;100.00
24788;BME280;12883;52.662;5.196;2023-03-22T00:35:48;100764.53;;;10.61;100.00
24788;BME280;12883;52.662;5.196;2023-03-22T00:38:14;100767.19;;;10.61;100.00
24788;BME280;12883;52.662;5.196;2023-03-22T00:40:40;100768.59;;;10.57;100.00
24788;BME280;12883;52.662;5.196;2023-03-22T00:43:06;100758.63;;;10.59;100.00
24788;BME280;12883;52.662;5.196;2023-03-22T00:45:31;100762.31;;;10.58;100.00
24788;BME280;12883;52.662;5.196;2023-03-22T00:47:57;100762.72;;;10.61;100.00
24788;BME280;12883;52.662;5.196;2023-03-22T00:50:22;100750.84;;;10.57;100.00
24788;BME280;12883;52.662;5.196;2023-03-22T00:52:47;100752.69;;;10.57;100.00
24788;BME280;12883;52.662;5.196;2023-03-22T00:55:13;100737.78;;;10.56;100.00
24788;BME280;12883;52.662;5.196;2023-03-22T00:57:38;100745.97;;;10.67;100.00
24788;BME280;12883;52.662;5.196;2023-03-22T01:00:05;100744.56;;;10.65;100.00
24788;BME280;12883;52.662;5.196;2023-03-22T01:02:38;100711.84;;;10.51;100.00
24788;BME280;12883;52.662;5.196;2023-03-22T01:05:04;100747.59;;;10.62;100.00
24788;BME280;12883;52.662;5.196;2023-03-22T01:07:31;100747.59;;;10.62;100.00
24788;BME280;12883;52.662;5.196;2023-03-22T01:09:57;100741.50;;;10.61;100.00
24788;BME280;12883;52.662;5.196;2023-03-22T01:12:23;100729.63;;;10.51;100.00
24788;BME280;12883;52.662;5.196;2023-03-22T01:14:48;100727.41;;;10.61;100.00
24788;BME280;12883;52.662;5.196;2023-03-22T01:17:13;100726.78;;;10.59;100.00
24788;BME280;12883;52.662;5.196;2023-03-22T01:19:39;100722.31;;;10.66;100.00
24788;BME280;12883;52.662;5.196;2023-03-22T01:22:05;100728.00;;;10.63;100.00
24788;BME280;12883;52.662;5.196;2023-03-22T01:24:30;100717.81;;;10.60;100.00
24788;BME280;12883;52.662;5.196;2023-03-22T01:26:56;100712.50;;;10.66;100.00
24788;BME280;12883;52.662;5.196;2023-03-22T01:29:23;100713.72;;;10.51;100.00
24788;BME280;12883;52.662;5.196;2023-03-22T01:31:49;100723.50;;;10.57;100.00
24788;BME280;12883;52.662;5.196;2023-03-22T01:34:14;100703.91;;;10.51;100.00
24788;BME280;12883;52.662;5.196;2023-03-22T01:36:39;100703.72;;;10.53;100.00
24788;BME280;12883;52.662;5.196;2023-03-22T01:39:05;100696.56;;;10.53;100.00
24788;BME280;12883;52.662;5.196;2023-03-22T01:41:31;100707.38;;;10.52;100.00
24788;BME280;12883;52.662;5.196;2023-03-22T01:44:19;100690.44;;;10.53;100.00
24788;BME280;12883;52.662;5.196;2023-03-22T01:46:46;100678.63;;;10.55;100.00
24788;BME280;12883;52.662;5.196;2023-03-22T01:49:25;100681.47;;;10.60;100.00
24788;BME280;12883;52.662;5.196;2023-03-22T01:51:54;100666.38;;;10.61;100.00
24788;BME280;12883;52.662;5.196;2023-03-22T01:54:28;100672.47;;;10.55;100.00
24788;BME280;12883;52.662;5.196;2023-03-22T01:56:55;100662.06;;;10.47;100.00
24788;BME280;12883;52.662;5.196;2023-03-22T01:59:21;100666.75;;;10.51;100.00
24788;BME280;12883;52.662;5.196;2023-03-22T02:01:47;100659.41;;;10.47;100.00
24788;BME280;12883;52.662;5.196;2023-03-22T02:04:18;100651.47;;;10.40;100.00
24788;BME280;12883;52.662;5.196;2023-03-22T02:06:52;100662.66;;;10.49;100.00
24788;BME280;12883;52.662;5.196;2023-03-22T02:09:19;100647.19;;;10.46;100.00
24788;BME280;12883;52.662;5.196;2023-03-22T02:12:00;100653.69;;;10.50;100.00
24788;BME280;12883;52.662;5.196;2023-03-22T02:15:06;100644.94;;;10.49;100.00
24788;BME280;12883;52.662;5.196;2023-03-22T02:17:48;100642.09;;;10.51;100.00
24788;BME280;12883;52.662;5.196;2023-03-22T02:38:12;100614.91;;;10.49;100.00
24788;BME280;12883;52.662;5.196;2023-03-22T02:40:48;100599.03;;;10.42;100.00
24788;BME280;12883;52.662;5.196;2023-03-22T02:45:55;100587.16;;;10.38;100.00
24788;BME280;12883;52.662;5.196;2023-03-22T02:48:37;100579.84;;;10.47;100.00
24788;BME280;12883;52.662;5.196;2023-03-22T02:51:08;100574.94;;;10.44;100.00
24788;BME280;12883;52.662;5.196;2023-03-22T02:53:42;100562.88;;;10.35;100.00
24788;BME280;12883;52.662;5.196;2023-03-22T02:56:23;100563.09;;;10.46;100.00
24788;BME280;12883;52.662;5.196;2023-03-22T02:58:52;100564.34;;;10.44;100.00
24788;BME280;12883;52.662;5.196;2023-03-22T03:01:32;100551.66;;;10.39;100.00
24788;BME280;12883;52.662;5.196;2023-03-22T03:04:00;100571.25;;;10.51;100.00
24788;BME280;12883;52.662;5.196;2023-03-22T03:06:32;100572.50;;;10.42;100.00
24788;BME280;12883;52.662;5.196;2023-03-22T03:09:00;100578.00;;;10.47;100.00
24788;BME280;12883;52.662;5.196;2023-03-22T03:11:29;100531.69;;;10.24;100.00
24788;BME280;12883;52.662;5.196;2023-03-22T03:13:55;100574.94;;;10.44;100.00
24788;BME280;12883;52.662;5.196;2023-03-22T03:16:22;100550.44;;;10.29;100.00
24788;BME280;12883;52.662;5.196;2023-03-22T03:19:01;100572.91;;;10.46;100.00
24788;BME280;12883;52.662;5.196;2023-03-22T03:24:29;100559.44;;;10.41;100.00
24788;BME280;12883;52.662;5.196;2023-03-22T03:27:22;100531.66;;;10.17;100.00
24788;BME280;12883;52.662;5.196;2023-03-22T03:30:10;100558.41;;;10.42;100.00
24788;BME280;12883;52.662;5.196;2023-03-22T03:32:49;100537.19;;;10.42;100.00
24788;BME280;12883;52.662;5.196;2023-03-22T03:35:21;100549.00;;;10.52;100.00
24788;BME280;12883;52.662;5.196;2023-03-22T03:38:05;100545.94;;;10.62;100.00
24788;BME280;12883;52.662;5.196;2023-03-22T03:40:36;100545.56;;;10.65;100.00
24788;BME280;12883;52.662;5.196;2023-03-22T03:43:04;100529.22;;;10.55;100.00
24788;BME280;12883;52.662;5.196;2023-03-22T03:45:31;100537.16;;;10.68;100.00
24788;BME280;12883;52.662;5.196;2023-03-22T03:48:00;100546.56;;;10.70;100.00
24788;BME280;12883;52.662;5.196;2023-03-22T03:50:28;100542.69;;;10.73;100.00
24788;BME280;12883;52.662;5.196;2023-03-22T03:52:54;100539.00;;;10.74;100.00
24788;BME280;12883;52.662;5.196;2023-03-22T03:55:21;100547.34;;;10.71;100.00
24788;BME280;12883;52.662;5.196;2023-03-22T03:57:47;100545.94;;;10.75;100.00
24788;BME280;12883;52.662;5.196;2023-03-22T04:00:13;100543.06;;;10.70;100.00
24788;BME280;12883;52.662;5.196;2023-03-22T04:02:40;100540.66;;;10.68;100.00
24788;BME280;12883;52.662;5.196;2023-03-22T04:05:06;100528.78;;;10.71;100.00
24788;BME280;12883;52.662;5.196;2023-03-22T04:07:32;100537.53;;;10.78;100.00
24788;BME280;12883;52.662;5.196;2023-03-22T04:09:57;100528.38;;;10.74;100.00
24788;BME280;12883;52.662;5.196;2023-03-22T04:12:23;100537.75;;;10.70;100.00
24788;BME280;12883;52.662;5.196;2023-03-22T04:14:48;100528.38;;;10.74;100.00
24788;BME280;12883;52.662;5.196;2023-03-22T04:17:13;100543.50;;;10.67;100.00
24788;BME280;12883;52.662;5.196;2023-03-22T04:19:39;100528.38;;;10.67;100.00
24788;BME280;12883;52.662;5.196;2023-03-22T04:22:06;100534.91;;;10.71;100.00
24788;BME280;12883;52.662;5.196;2023-03-22T04:24:42;100510.66;;;10.55;100.00
24788;BME280;12883;52.662;5.196;2023-03-22T04:27:08;100529.41;;;10.73;100.00
24788;BME280;12883;52.662;5.196;2023-03-22T04:29:34;100505.16;;;10.56;100.00
24788;BME280;12883;52.662;5.196;2023-03-22T04:32:01;100517.34;;;10.64;100.00
24788;BME280;12883;52.662;5.196;2023-03-22T04:34:27;100515.09;;;10.67;100.00
24788;BME280;12883;52.662;5.196;2023-03-22T04:36:52;100513.47;;;10.73;100.00
24788;BME280;12883;52.662;5.196;2023-03-22T04:39:18;100524.50;;;10.70;100.00
24788;BME280;12883;52.662;5.196;2023-03-22T04:41:44;100514.50;;;10.72;100.00
24788;BME280;12883;52.662;5.196;2023-03-22T04:44:09;100513.28;;;10.68;100.00
24788;BME280;12883;52.662;5.196;2023-03-22T04:46:35;100500.44;;;10.65;100.00
24788;BME280;12883;52.662;5.196;2023-03-22T04:49:01;100501.84;;;10.67;100.00
24788;BME280;12883;52.662;5.196;2023-03-22T04:51:27;100494.53;;;10.56;100.00
24788;BME280;12883;52.662;5.196;2023-03-22T04:53:53;100474.13;;;10.50;100.00
24788;BME280;12883;52.662;5.196;2023-03-22T04:56:19;100487.56;;;10.62;100.00
24788;BME280;12883;52.662;5.196;2023-03-22T04:58:45;100480.63;;;10.61;100.00
24788;BME280;12883;52.662;5.196;2023-03-22T05:01:12;100486.97;;;10.60;100.00
24788;BME280;12883;52.662;5.196;2023-03-22T05:03:38;100481.25;;;10.63;100.00
24788;BME280;12883;52.662;5.196;2023-03-22T05:06:06;100476.56;;;10.65;100.00
24788;BME280;12883;52.662;5.196;2023-03-22T05:08:32;100476.16;;;10.61;100.00
24788;BME280;12883;52.662;5.196;2023-03-22T05:11:04;100472.09;;;10.59;100.00
24788;BME280;12883;52.662;5.196;2023-03-22T05:13:30;100448.59;;;10.56;100.00
24788;BME280;12883;52.662;5.196;2023-03-22T05:15:55;100465.53;;;10.68;100.00
24788;BME280;12883;52.662;5.196;2023-03-22T05:18:22;100447.81;;;10.55;100.00
24788;BME280;12883;52.662;5.196;2023-03-22T05:20:54;100461.44;;;10.65;100.00
24788;BME280;12883;52.662;5.196;2023-03-22T05:23:19;100466.13;;;10.70;100.00
24788;BME280;12883;52.662;5.196;2023-03-22T05:25:46;100460.22;;;10.68;100.00
24788;BME280;12883;52.662;5.196;2023-03-22T05:28:12;100448.41;;;10.57;100.00
24788;BME280;12883;52.662;5.196;2023-03-22T05:30:42;100457.53;;;10.74;100.00
24788;BME280;12883;52.662;5.196;2023-03-22T05:33:08;100454.28;;;10.79;100.00
24788;BME280;12883;52.662;5.196;2023-03-22T05:35:34;100450.59;;;10.73;100.00
24788;BME280;12883;52.662;5.196;2023-03-22T05:38:00;100457.31;;;10.76;100.00
24788;BME280;12883;52.662;5.196;2023-03-22T05:40:26;100425.53;;;10.63;100.00
24788;BME280;12883;52.662;5.196;2023-03-22T05:42:52;100448.97;;;10.79;100.00
24788;BME280;12883;52.662;5.196;2023-03-22T05:45:19;100446.31;;;10.79;100.00
24788;BME280;12883;52.662;5.196;2023-03-22T05:47:45;100445.53;;;10.72;100.00
24788;BME280;12883;52.662;5.196;2023-03-22T05:50:12;100440.19;;;10.78;100.00
24788;BME280;12883;52.662;5.196;2023-03-22T05:52:38;100414.91;;;10.63;100.00
24788;BME280;12883;52.662;5.196;2023-03-22T05:55:04;100428.97;;;10.76;100.00
24788;BME280;12883;52.662;5.196;2023-03-22T05:57:30;100413.03;;;10.76;100.00
24788;BME280;12883;52.662;5.196;2023-03-22T05:59:56;100424.84;;;10.80;100.00
24788;BME280;12883;52.662;5.196;2023-03-22T06:02:22;100413.59;;;10.85;100.00
24788;BME280;12883;52.662;5.196;2023-03-22T06:04:48;100412.81;;;10.78;100.00
24788;BME280;12883;52.662;5.196;2023-03-22T06:07:14;100389.19;;;10.63;100.00
24788;BME280;12883;52.662;5.196;2023-03-22T06:09:39;100434.66;;;10.80;100.00
24788;BME280;12883;52.662;5.196;2023-03-22T06:12:06;100440.97;;;10.85;100.00
24788;BME280;12883;52.662;5.196;2023-03-22T06:14:31;100401.84;;;10.68;100.00
24788;BME280;12883;52.662;5.196;2023-03-22T06:16:57;100393.91;;;10.61;100.00
24788;BME280;12883;52.662;5.196;2023-03-22T06:19:22;100423.63;;;10.83;100.00
24788;BME280;12883;52.662;5.196;2023-03-22T06:21:50;100440.13;;;10.91;100.00
24788;BME280;12883;52.662;5.196;2023-03-22T06:24:17;100430.31;;;10.92;100.00
24788;BME280;12883;52.662;5.196;2023-03-22T06:26:42;100429.13;;;10.88;100.00
24788;BME280;12883;52.662;5.196;2023-03-22T06:29:08;100435.41;;;10.93;100.00
24788;BME280;12883;52.662;5.196;2023-03-22T06:31:33;100426.28;;;10.83;100.00
24788;BME280;12883;52.662;5.196;2023-03-22T06:33:58;100440.47;;;11.01;100.00
24788;BME280;12883;52.662;5.196;2023-03-22T06:36:24;100432.75;;;11.00;100.00
24788;BME280;12883;52.662;5.196;2023-03-22T06:38:50;100421.31;;;10.99;100.00
24788;BME280;12883;52.662;5.196;2023-03-22T06:41:15;100427.84;;;11.03;100.00
24788;BME280;12883;52.662;5.196;2023-03-22T06:43:40;100431.50;;;11.02;100.00
24788;BME280;12883;52.662;5.196;2023-03-22T06:46:05;100431.47;;;11.09;100.00
24788;BME280;12883;52.662;5.196;2023-03-22T06:48:31;100419.69;;;10.92;100.00
24788;BME280;12883;52.662;5.196;2023-03-22T06:50:56;100425.72;;;11.12;100.00
24788;BME280;12883;52.662;5.196;2023-03-22T06:53:21;100424.09;;;11.11;100.00
24788;BME280;12883;52.662;5.196;2023-03-22T06:55:47;100419.63;;;11.05;100.00
24788;BME280;12883;52.662;5.196;2023-03-22T06:58:12;100426.56;;;11.06;100.00
24788;BME280;12883;52.662;5.196;2023-03-22T07:00:38;100425.72;;;11.12;100.00
24788;BME280;12883;52.662;5.196;2023-03-22T07:03:03;100427.78;;;11.16;100.00
24788;BME280;12883;52.662;5.196;2023-03-22T07:05:29;100427.53;;;11.18;100.00
24788;BME280;12883;52.662;5.196;2023-03-22T07:07:54;100418.38;;;11.14;100.00
24788;BME280;12883;52.662;5.196;2023-03-22T07:10:20;100423.25;;;11.17;100.00
24788;BME280;12883;52.662;5.196;2023-03-22T07:12:45;100421.84;;;11.14;100.00
24788;BME280;12883;52.662;5.196;2023-03-22T07:15:10;100414.69;;;11.15;100.00
24788;BME280;12883;52.662;5.196;2023-03-22T07:17:36;100433.00;;;11.29;100.00
24788;BME280;12883;52.662;5.196;2023-03-22T07:20:01;100433.81;;;11.30;100.00
24788;BME280;12883;52.662;5.196;2023-03-22T07:22:28;100409.72;;;11.31;100.00
24788;BME280;12883;52.662;5.196;2023-03-22T07:24:53;100406.69;;;11.21;100.00
24788;BME280;12883;52.662;5.196;2023-03-22T07:27:19;100415.41;;;11.35;100.00
24788;BME280;12883;52.662;5.196;2023-03-22T07:29:44;100412.91;;;11.40;100.00
24788;BME280;12883;52.662;5.196;2023-03-22T07:32:10;100386.22;;;11.28;100.00
24788;BME280;12883;52.662;5.196;2023-03-22T07:34:35;100415.31;;;11.48;100.00
24788;BME280;12883;52.662;5.196;2023-03-22T07:37:01;100398.16;;;11.44;100.00
24788;BME280;12883;52.662;5.196;2023-03-22T07:39:27;100404.06;;;11.46;100.00
24788;BME280;12883;52.662;5.196;2023-03-22T07:41:53;100402.25;;;11.46;100.00
24788;BME280;12883;52.662;5.196;2023-03-22T07:44:19;100390.84;;;11.39;100.00
24788;BME280;12883;52.662;5.196;2023-03-22T07:46:45;100406.25;;;11.55;100.00
24788;BME280;12883;52.662;5.196;2023-03-22T07:49:11;100404.84;;;11.59;100.00
24788;BME280;12883;52.662;5.196;2023-03-22T07:51:37;100400.94;;;11.62;100.00
24788;BME280;12883;52.662;5.196;2023-03-22T07:54:02;100412.75;;;11.66;100.00
24788;BME280;12883;52.662;5.196;2023-03-22T07:56:28;100417.22;;;11.72;100.00
24788;BME280;12883;52.662;5.196;2023-03-22T07:58:53;100415.16;;;11.74;100.00
24788;BME280;12883;52.662;5.196;2023-03-22T08:01:19;100417.91;;;11.85;100.00
24788;BME280;12883;52.662;5.196;2023-03-22T08:03:45;100421.41;;;11.86;100.00
24788;BME280;12883;52.662;5.196;2023-03-22T08:06:11;100416.66;;;11.88;100.00
24788;BME280;12883;52.662;5.196;2023-03-22T08:08:36;100413.50;;;11.79;100.00
24788;BME280;12883;52.662;5.196;2023-03-22T08:11:03;100415.91;;;11.81;100.00
24788;BME280;12883;52.662;5.196;2023-03-22T08:13:29;100411.34;;;11.88;100.00
24788;BME280;12883;52.662;5.196;2023-03-22T08:15:54;100377.13;;;11.73;100.00
24788;BME280;12883;52.662;5.196;2023-03-22T08:18:19;100392.06;;;11.74;100.00
24788;BME280;12883;52.662;5.196;2023-03-22T08:20:45;100407.66;;;11.89;100.00
24788;BME280;12883;52.662;5.196;2023-03-22T08:23:11;100416.91;;;11.86;100.00
24788;BME280;12883;52.662;5.196;2023-03-22T08:25:41;100399.69;;;11.89;100.00
24788;BME280;12883;52.662;5.196;2023-03-22T08:28:08;100407.78;;;11.76;100.00
24788;BME280;12883;52.662;5.196;2023-03-22T08:30:34;100405.34;;;11.74;100.00
24788;BME280;12883;52.662;5.196;2023-03-22T08:32:59;100403.09;;;11.71;100.00
24788;BME280;12883;52.662;5.196;2023-03-22T08:35:25;100407.81;;;11.69;100.00
24788;BME280;12883;52.662;5.196;2023-03-22T08:37:54;100404.13;;;11.70;100.00
24788;BME280;12883;52.662;5.196;2023-03-22T08:40:20;100402.31;;;11.71;100.00
24788;BME280;12883;52.662;5.196;2023-03-22T08:42:47;100410.88;;;11.73;100.00
24788;BME280;12883;52.662;5.196;2023-03-22T08:45:13;100403.72;;;11.73;100.00
24788;BME280;12883;52.662;5.196;2023-03-22T08:47:39;100407.44;;;11.66;100.00
24788;BME280;12883;52.662;5.196;2023-03-22T08:50:04;100411.53;;;11.68;100.00
24788;BME280;12883;52.662;5.196;2023-03-22T08:52:30;100406.59;;;11.72;100.00
24788;BME280;12883;52.662;5.196;2023-03-22T08:54:55;100407.44;;;11.66;100.00
24788;BME280;12883;52.662;5.196;2023-03-22T08:57:20;100416.00;;;11.68;100.00
24788;BME280;12883;52.662;5.196;2023-03-22T08:59:48;100391.94;;;11.63;100.00
24788;BME280;12883;52.662;5.196;2023-03-22T09:02:13;100404.00;;;11.65;100.00
24788;BME280;12883;52.662;5.196;2023-03-22T09:04:39;100387.41;;;11.63;100.00
24788;BME280;12883;52.662;5.196;2023-03-22T09:07:04;100401.09;;;11.67;100.00
24788;BME280;12883;52.662;5.196;2023-03-22T09:09:29;100396.03;;;11.65;100.00
24788;BME280;12883;52.662;5.196;2023-03-22T09:11:55;100362.41;;;11.40;100.00
24788;BME280;12883;52.662;5.196;2023-03-22T09:14:22;100401.78;;;11.56;100.00
24788;BME280;12883;52.662;5.196;2023-03-22T09:16:47;100400.16;;;11.55;100.00
24788;BME280;12883;52.662;5.196;2023-03-22T09:19:13;100406.72;;;11.52;100.00
24788;BME280;12883;52.662;5.196;2023-03-22T09:21:38;100388.00;;;11.41;100.00
24788;BME280;12883;52.662;5.196;2023-03-22T09:24:03;100396.97;;;11.40;100.00
24788;BME280;12883;52.662;5.196;2023-03-22T09:26:29;100391.66;;;11.40;100.00
24788;BME280;12883;52.662;5.196;2023-03-22T09:28:54;100358.72;;;11.16;100.00
24788;BME280;12883;52.662;5.196;2023-03-22T09:31:20;100382.50;;;11.36;100.00
24788;BME280;12883;52.662;5.196;2023-03-22T09:33:45;100380.69;;;11.30;100.00
24788;BME280;12883;52.662;5.196;2023-03-22T09:36:11;100375.38;;;11.30;100.00
24788;BME280;12883;52.662;5.196;2023-03-22T09:38:37;100388.22;;;11.33;100.00
24788;BME280;12883;52.662;5.196;2023-03-22T09:41:15;100383.09;;;11.38;100.00
24788;BME280;12883;52.662;5.196;2023-03-22T09:43:46;100379.88;;;11.29;100.00
24788;BME280;12883;52.662;5.196;2023-03-22T09:46:22;100390.47;;;11.36;100.00
24788;BME280;12883;52.662;5.196;2023-03-22T09:48:49;100378.28;;;11.22;100.00
24788;BME280;12883;52.662;5.196;2023-03-22T09:53:55;100387.59;;;11.37;100.00
24788;BME280;12883;52.662;5.196;2023-03-22T09:56:26;100384.56;;;11.34;100.00
24788;BME280;12883;52.662;5.196;2023-03-22T09:58:58;100387.16;;;11.40;100.00
24788;BME280;12883;52.662;5.196;2023-03-22T10:01:44;100391.91;;;11.32;100.00
24788;BME280;12883;52.662;5.196;2023-03-22T10:04:21;100388.41;;;11.38;100.00
24788;BME280;12883;52.662;5.196;2023-03-22T10:06:59;100390.84;;;11.39;100.00
24788;BME280;12883;52.662;5.196;2023-03-22T10:09:44;100362.19;;;11.17;100.00
24788;BME280;12883;52.662;5.196;2023-03-22T10:15:14;100387.59;;;11.37;100.00
24788;BME280;12883;52.662;5.196;2023-03-22T10:17:38;100392.03;;;11.43;100.00
24788;BME280;12883;52.662;5.196;2023-03-22T10:20:38;100397.72;;;11.47;100.00
24788;BME280;12883;52.662;5.196;2023-03-22T10:23:11;100397.91;;;11.52;100.00
24788;BME280;12883;52.662;5.196;2023-03-22T10:25:39;100386.03;;;11.54;100.00
24788;BME280;12883;52.662;5.196;2023-03-22T10:30:57;100396.03;;;11.59;100.00
24788;BME280;12883;52.662;5.196;2023-03-22T10:35:55;100392.59;;;11.58;100.00
24788;BME280;12883;52.662;5.196;2023-03-22T10:38:23;100391.16;;;11.56;100.00
24788;BME280;12883;52.662;5.196;2023-03-22T10:40:52;100381.91;;;11.65;100.00
24788;BME280;12883;52.662;5.196;2023-03-22T10:43:29;100368.69;;;11.52;100.00
24788;BME280;12883;52.662;5.196;2023-03-22T10:45:57;100382.06;;;11.70;100.00
24788;BME280;12883;52.662;5.196;2023-03-22T10:48:31;100350.59;;;11.67;100.00
24788;BME280;12883;52.662;5.196;2023-03-22T10:50:58;100348.63;;;11.56;100.00
24788;BME280;12883;52.662;5.196;2023-03-22T10:53:26;100347.88;;;11.49;100.00
24788;BME280;12883;52.662;5.196;2023-03-22T10:55:52;100344.97;;;11.50;100.00
24788;BME280;12883;52.662;5.196;2023-03-22T10:58:20;100313.84;;;11.33;100.00
24788;BME280;12883;52.662;5.196;2023-03-22T11:03:28;100343.94;;;11.58;100.00
24788;BME280;12883;52.662;5.196;2023-03-22T11:08:46;100355.50;;;11.70;100.00
24788;BME280;12883;52.662;5.196;2023-03-22T11:11:37;100346.50;;;11.71;100.00
24788;BME280;12883;52.662;5.196;2023-03-22T11:16:30;100356.53;;;11.69;100.00
24788;BME280;12883;52.662;5.196;2023-03-22T11:18:58;100364.50;;;11.69;100.00
24788;BME280;12883;52.662;5.196;2023-03-22T11:21:29;100371.44;;;11.70;100.00
24788;BME280;12883;52.662;5.196;2023-03-22T11:24:00;100371.84;;;11.67;100.00
24788;BME280;12883;52.662;5.196;2023-03-22T11:26:35;100375.72;;;11.71;100.00
24788;BME280;12883;52.662;5.196;2023-03-22T11:29:21;100386.16;;;11.72;100.00
24788;BME280;12883;52.662;5.196;2023-03-22T11:31:56;100383.09;;;11.69;100.00
24788;BME280;12883;52.662;5.196;2023-03-22T11:34:29;100426.13;;;11.84;100.00
24788;BME280;12883;52.662;5.196;2023-03-22T11:36:58;100428.13;;;11.88;100.00
24788;BME280;12883;52.662;5.196;2023-03-22T11:39:26;100435.63;;;11.98;100.00
24788;BME280;12883;52.662;5.196;2023-03-22T11:42:04;100411.22;;;11.83;100.00
24788;BME280;12883;52.662;5.196;2023-03-22T11:44:34;100423.94;;;11.99;100.00
24788;BME280;12883;52.662;5.196;2023-03-22T11:47:03;100444.63;;;11.97;100.00
24788;BME280;12883;52.662;5.196;2023-03-22T11:49:49;100432.50;;;12.01;100.00
24788;BME280;12883;52.662;5.196;2023-03-22T11:52:18;100437.03;;;12.00;100.00
24788;BME280;12883;52.662;5.196;2023-03-22T11:54:47;100424.78;;;11.99;100.00
24788;BME280;12883;52.662;5.196;2023-03-22T11:57:19;100429.28;;;11.99;100.00
24788;BME280;12883;52.662;5.196;2023-03-22T12:02:28;100428.06;;;11.95;100.00
24788;BME280;12883;52.662;5.196;2023-03-22T12:05:11;100433.56;;;12.00;100.00
24788;BME280;12883;52.662;5.196;2023-03-22T12:07:37;100429.94;;;11.94;100.00
24788;BME280;12883;52.662;5.196;2023-03-22T12:12:36;100423.13;;;11.98;100.00
24788;BME280;12883;52.662;5.196;2023-03-22T12:15:22;100423.94;;;11.99;100.00
24788;BME280;12883;52.662;5.196;2023-03-22T12:22:49;100410.88;;;11.97;100.00
24788;BME280;12883;52.662;5.196;2023-03-22T12:25:31;100395.34;;;11.94;100.00
24788;BME280;12883;52.662;5.196;2023-03-22T12:28:07;100414.94;;;12.00;100.00
24788;BME280;12883;52.662;5.196;2023-03-22T12:30:39;100413.97;;;11.94;100.00
24788;BME280;12883;52.662;5.196;2023-03-22T12:35:42;100410.44;;;12.00;100.00
24788;BME280;12883;52.662;5.196;2023-03-22T12:38:45;100410.22;;;12.02;100.00
24788;BME280;12883;52.662;5.196;2023-03-22T12:41:21;100411.88;;;12.03;100.00
24788;BME280;12883;52.662;5.196;2023-03-22T12:44:17;100403.06;;;12.02;100.00
24788;BME280;12883;52.662;5.196;2023-03-22T12:47:15;100412.00;;;12.08;100.00
24788;BME280;12883;52.662;5.196;2023-03-22T12:52:18;100407.72;;;12.07;100.00
24788;BME280;12883;52.662;5.196;2023-03-22T12:54:46;100406.03;;;12.12;100.00
24788;BME280;12883;52.662;5.196;2023-03-22T12:57:14;100410.53;;;12.12;100.00
24788;BME280;12883;52.662;5.196;2023-03-22T12:59:42;100404.63;;;12.10;100.00
24788;BME280;12883;52.662;5.196;2023-03-22T13:02:13;100417.03;;;12.16;100.00
24788;BME280;12883;52.662;5.196;2023-03-22T13:07:16;100403.81;;;12.09;100.00
24788;BME280;12883;52.662;5.196;2023-03-22T13:09:54;100409.66;;;12.18;100.00
24788;BME280;12883;52.662;5.196;2023-03-22T13:19:53;100416.78;;;12.24;100.00
24788;BME280;12883;52.662;5.196;2023-03-22T13:25:00;100415.88;;;12.30;100.00
24788;BME280;12883;52.662;5.196;2023-03-22T13:27:51;100419.34;;;12.30;100.00
24788;BME280;12883;52.662;5.196;2023-03-22T13:30:49;100422.84;;;12.31;100.00
24788;BME280;12883;52.662;5.196;2023-03-22T13:38:29;100409.75;;;12.29;100.00
24788;BME280;12883;52.662;5.196;2023-03-22T13:54:15;100407.19;;;12.41;100.00
24788;BME280;12883;52.662;5.196;2023-03-22T13:56:57;100401.84;;;12.41;100.00
24788;BME280;12883;52.662;5.196;2023-03-22T14:02:28;100397.00;;;12.38;100.00
24788;BME280;12883;52.662;5.196;2023-03-22T14:05:08;100386.34;;;12.38;100.00
24788;BME280;12883;52.662;5.196;2023-03-22T14:07:48;100391.00;;;12.42;100.00
24788;BME280;12883;52.662;5.196;2023-03-22T14:10:18;100385.69;;;12.42;100.00
24788;BME280;12883;52.662;5.196;2023-03-22T14:12:54;100379.63;;;12.35;100.00
24788;BME280;12883;52.662;5.196;2023-03-22T14:15:29;100374.38;;;12.47;100.00
24788;BME280;12883;52.662;5.196;2023-03-22T14:18:07;100366.22;;;12.42;100.00
24788;BME280;12883;52.662;5.196;2023-03-22T14:20:37;100338.97;;;12.28;100.00
24788;BME280;12883;52.662;5.196;2023-03-22T14:23:28;100360.47;;;12.45;100.00